createdAt,value
2022-10-20T00:00:18.008Z,54.47
2022-10-20T00:02:44.459Z,53.78
2022-10-20T00:05:10.896Z,65.40
2022-10-20T00:07:37.353Z,55.70
2022-10-20T00:10:04.049Z,59.72
2022-10-20T00:12:30.481Z,58.78
2022-10-20T00:14:56.907Z,62.03
2022-10-20T00:17:23.337Z,66.82
2022-10-20T00:19:50.183Z,60.67
2022-10-20T00:22:16.983Z,60.38
2022-10-20T00:24:43.653Z,64.13
2022-10-20T00:27:10.655Z,67.03
2022-10-20T00:29:37.124Z,66.13
2022-10-20T00:32:03.596Z,65.80
2022-10-20T00:34:30.012Z,61.85
2022-10-20T00:36:56.471Z,56.75
2022-10-20T00:39:22.911Z,58.20
2022-10-20T00:41:49.325Z,58.08
2022-10-20T00:44:48.056Z,58.97
2022-10-20T00:47:19.755Z,53.63
2022-10-20T00:49:47.579Z,57.92
2022-10-20T00:52:15.704Z,58.83
2022-10-20T00:54:42.126Z,63.85
2022-10-20T00:57:08.574Z,65.50
2022-10-20T00:59:37.200Z,57.13
2022-10-20T01:02:06.827Z,56.75
2022-10-20T01:04:34.637Z,67.75
2022-10-20T01:07:01.177Z,52.00
2022-10-20T01:09:27.934Z,56.80
2022-10-20T01:12:19.335Z,58.92
2022-10-20T01:17:52.822Z,57.47
2022-10-20T01:21:00.723Z,59.53
2022-10-20T01:23:29.804Z,54.63
2022-10-20T01:26:24.138Z,56.13
2022-10-20T01:28:54.983Z,56.28
2022-10-20T01:31:36.190Z,55.58
2022-10-20T01:37:01.180Z,54.00
2022-10-20T01:39:34.169Z,59.80
2022-10-20T01:42:08.509Z,59.95
2022-10-20T01:44:37.060Z,52.38
2022-10-20T01:47:04.952Z,58.67
2022-10-20T01:49:31.572Z,56.78
2022-10-20T01:51:58.114Z,57.80
2022-10-20T01:54:27.663Z,56.50
2022-10-20T01:56:59.915Z,53.90
2022-10-20T01:59:29.200Z,56.55
2022-10-20T02:02:01.640Z,51.58
2022-10-20T02:04:57.263Z,57.55
2022-10-20T02:07:28.927Z,54.22
2022-10-20T02:10:05.133Z,76.35
2022-10-20T02:12:37.680Z,54.38
2022-10-20T02:15:07.010Z,56.20
2022-10-20T02:17:35.665Z,54.80
2022-10-20T02:20:05.711Z,53.30
2022-10-20T02:22:33.075Z,51.10
2022-10-20T02:25:00.257Z,47.70
2022-10-20T02:27:35.206Z,56.05
2022-10-20T02:30:06.796Z,55.65
2022-10-20T02:32:35.768Z,52.97
2022-10-20T02:35:13.624Z,52.33
2022-10-20T02:37:40.639Z,55.58
2022-10-20T02:40:07.802Z,56.60
2022-10-20T02:42:34.305Z,50.10
2022-10-20T02:45:00.739Z,52.42
2022-10-20T02:47:27.284Z,53.63
2022-10-20T02:49:53.749Z,54.00
2022-10-20T02:52:20.252Z,54.20
2022-10-20T02:54:46.689Z,54.55
2022-10-20T02:57:13.115Z,56.30
2022-10-20T02:59:39.574Z,52.17
2022-10-20T03:02:06.072Z,55.47
2022-10-20T03:04:32.580Z,58.53
2022-10-20T03:06:58.987Z,52.92
2022-10-20T03:09:25.384Z,56.60
2022-10-20T03:11:51.809Z,60.05
2022-10-20T03:14:18.234Z,55.85
2022-10-20T03:16:44.685Z,60.22
2022-10-20T03:19:11.982Z,54.17
2022-10-20T03:21:38.793Z,56.88
2022-10-20T03:24:05.527Z,59.28
2022-10-20T03:26:32.384Z,60.30
2022-10-20T03:28:58.920Z,63.25
2022-10-20T03:31:25.419Z,55.88
2022-10-20T03:33:51.828Z,58.80
2022-10-20T03:36:18.222Z,52.03
2022-10-20T03:38:44.625Z,57.85
2022-10-20T03:41:11.558Z,64.68
2022-10-20T03:43:41.309Z,55.67
2022-10-20T03:46:10.576Z,54.67
2022-10-20T03:48:38.505Z,57.10
2022-10-20T03:51:05.949Z,57.72
2022-10-20T03:53:32.491Z,64.47
2022-10-20T03:55:59.224Z,52.97
2022-10-20T03:58:25.642Z,60.60
2022-10-20T04:00:52.343Z,49.92
2022-10-20T04:03:18.773Z,52.28
2022-10-20T04:05:45.251Z,49.22
2022-10-20T04:08:11.940Z,50.65
2022-10-20T04:10:38.457Z,54.45
2022-10-20T04:13:04.977Z,53.40
2022-10-20T04:15:31.593Z,62.55
2022-10-20T04:17:58.217Z,47.85
2022-10-20T04:20:24.701Z,56.80
2022-10-20T04:22:51.337Z,55.47
2022-10-20T04:25:18.180Z,47.97
2022-10-20T04:27:44.619Z,49.67
2022-10-20T04:30:11.352Z,51.83
2022-10-20T04:32:37.783Z,49.58
2022-10-20T04:35:04.683Z,49.92
2022-10-20T04:37:31.175Z,55.45
2022-10-20T04:39:57.798Z,51.75
2022-10-20T04:42:24.427Z,48.22
2022-10-20T04:44:50.940Z,62.45
2022-10-20T04:47:17.407Z,57.00
2022-10-20T04:49:44.241Z,50.75
2022-10-20T04:52:10.721Z,55.22
2022-10-20T04:54:37.253Z,53.88
2022-10-20T04:57:05.945Z,54.80
2022-10-20T04:59:32.686Z,46.05
2022-10-20T05:01:59.229Z,54.10
2022-10-20T05:04:25.773Z,50.47
2022-10-20T05:06:52.184Z,55.25
2022-10-20T05:09:19.528Z,57.78
2022-10-20T05:11:46.327Z,55.15
2022-10-20T05:14:12.793Z,49.90
2022-10-20T05:16:39.292Z,55.97
2022-10-20T05:19:05.740Z,46.78
2022-10-20T05:21:32.299Z,49.35
2022-10-20T05:24:04.515Z,54.28
2022-10-20T05:26:34.879Z,49.33
2022-10-20T05:29:04.524Z,48.33
2022-10-20T05:31:31.441Z,48.63
2022-10-20T05:33:58.101Z,57.90
2022-10-20T05:36:26.441Z,52.45
2022-10-20T05:38:54.714Z,55.63
2022-10-20T05:41:24.647Z,46.15
2022-10-20T05:43:52.952Z,52.17
2022-10-20T05:46:20.197Z,48.20
2022-10-20T05:48:47.295Z,58.50
2022-10-20T05:51:16.429Z,51.35
2022-10-20T05:53:43.577Z,62.15
2022-10-20T05:56:13.425Z,43.67
2022-10-20T05:58:40.523Z,49.33
2022-10-20T06:01:18.037Z,48.35
2022-10-20T06:03:58.777Z,42.13
2022-10-20T06:06:27.862Z,51.72
2022-10-20T06:08:55.527Z,50.17
2022-10-20T06:11:23.226Z,49.00
2022-10-20T06:13:52.646Z,51.65
2022-10-20T06:16:22.549Z,52.30
2022-10-20T06:18:49.729Z,42.67
2022-10-20T06:21:22.081Z,46.03
2022-10-20T06:23:49.069Z,45.50
2022-10-20T06:26:18.148Z,40.92
2022-10-20T06:28:47.374Z,41.10
2022-10-20T06:31:20.941Z,40.58
2022-10-20T06:33:47.838Z,48.30
2022-10-20T06:36:15.483Z,39.90
2022-10-20T06:38:42.279Z,41.85
2022-10-20T06:41:11.694Z,45.72
2022-10-20T06:43:38.281Z,40.05
2022-10-20T06:46:06.588Z,57.13
2022-10-20T06:48:34.650Z,56.83
2022-10-20T06:51:04.568Z,46.70
2022-10-20T06:53:31.691Z,45.72
2022-10-20T06:56:03.173Z,47.85
2022-10-20T06:58:29.903Z,47.85
2022-10-20T07:01:14.827Z,50.53
2022-10-20T07:03:42.043Z,55.17
2022-10-20T07:06:10.301Z,51.30
2022-10-20T07:08:37.136Z,53.17
2022-10-20T07:11:18.297Z,54.15
2022-10-20T07:13:46.096Z,51.15
2022-10-20T07:16:14.944Z,50.17
2022-10-20T07:18:41.561Z,46.70
2022-10-20T07:21:12.024Z,54.08
2022-10-20T07:23:38.796Z,54.00
2022-10-20T07:26:27.203Z,49.05
2022-10-20T07:28:56.590Z,45.78
2022-10-20T07:31:26.915Z,48.72
2022-10-20T07:34:13.222Z,48.73
2022-10-20T07:36:42.772Z,72.07
2022-10-20T07:39:11.405Z,55.05
2022-10-20T07:41:39.502Z,54.05
2022-10-20T07:44:06.978Z,47.85
2022-10-20T07:46:36.472Z,58.05
2022-10-20T07:49:38.200Z,47.53
2022-10-20T07:51:50.381Z,45.00
2022-10-20T07:54:16.897Z,59.15
2022-10-20T07:56:44.627Z,50.92
2022-10-20T07:59:12.251Z,58.38
2022-10-20T08:01:38.870Z,63.28
2022-10-20T08:04:05.474Z,56.70
2022-10-20T08:06:32.042Z,65.15
2022-10-20T08:08:58.758Z,68.85
2022-10-20T08:11:25.332Z,70.47
2022-10-20T08:13:52.209Z,72.85
2022-10-20T08:21:39.533Z,72.07
2022-10-20T08:24:06.096Z,72.03
2022-10-20T08:26:32.514Z,73.80
2022-10-20T08:28:59.096Z,71.28
2022-10-20T08:31:25.798Z,84.60
2022-10-20T08:33:53.152Z,80.20
2022-10-20T08:36:20.757Z,86.43
2022-10-20T08:38:47.829Z,86.03
2022-10-20T08:41:24.748Z,83.22
2022-10-20T08:43:55.742Z,89.40
2022-10-20T08:46:27.223Z,93.82
2022-10-20T08:48:53.731Z,80.68
2022-10-20T08:51:26.681Z,98.97
2022-10-20T08:53:56.693Z,84.28
2022-10-20T08:56:28.316Z,80.68
2022-10-20T08:58:55.223Z,81.75
2022-10-20T09:01:28.253Z,84.05
2022-10-20T09:04:19.672Z,73.88
2022-10-20T09:06:50.979Z,66.43
2022-10-20T09:09:20.992Z,66.15
2022-10-20T09:11:48.450Z,64.63
2022-10-20T09:14:16.651Z,59.92
2022-10-20T09:16:59.275Z,60.22
2022-10-20T09:19:28.099Z,64.00
2022-10-20T09:22:06.348Z,55.00
2022-10-20T09:24:35.699Z,57.00
2022-10-20T09:27:24.000Z,52.55
2022-10-20T09:29:50.479Z,57.55
2022-10-20T09:32:45.937Z,53.67
2022-10-20T09:35:22.610Z,51.63
2022-10-20T09:38:01.495Z,52.67
2022-10-20T09:40:28.299Z,46.65
2022-10-20T09:43:17.062Z,45.20
2022-10-20T09:45:54.553Z,42.38
2022-10-20T09:48:27.052Z,42.80
2022-10-20T09:50:56.551Z,44.30
2022-10-20T09:53:28.788Z,43.47
2022-10-20T09:55:56.136Z,40.70
2022-10-20T09:58:32.277Z,40.85
2022-10-20T10:01:16.383Z,41.33
2022-10-20T10:03:45.040Z,37.65
2022-10-20T10:06:26.808Z,46.45
2022-10-20T10:08:53.716Z,45.30
2022-10-20T10:11:23.998Z,42.67
2022-10-20T10:13:52.846Z,58.40
2022-10-20T10:16:22.713Z,38.42
2022-10-20T10:19:03.830Z,45.30
2022-10-20T10:21:43.123Z,42.50
2022-10-20T10:24:29.855Z,51.45
2022-10-20T10:26:57.037Z,41.42
2022-10-20T10:29:32.934Z,41.13
2022-10-20T10:32:02.352Z,41.03
2022-10-20T10:34:55.969Z,43.10
2022-10-20T10:37:22.880Z,41.92
2022-10-20T10:39:50.213Z,37.38
2022-10-20T10:42:28.671Z,36.75
2022-10-20T10:45:16.655Z,40.25
2022-10-20T10:47:52.156Z,37.80
2022-10-20T10:50:26.818Z,37.92
2022-10-20T10:53:03.529Z,34.05
2022-10-20T10:55:49.244Z,37.38
2022-10-20T10:58:18.807Z,38.65
2022-10-20T11:01:09.761Z,38.13
2022-10-20T11:03:57.728Z,38.97
2022-10-20T11:06:30.466Z,35.17
2022-10-20T11:09:36.889Z,36.15
2022-10-20T11:12:10.211Z,34.25
2022-10-20T11:14:59.328Z,40.90
2022-10-20T11:18:10.706Z,31.70
2022-10-20T11:20:40.985Z,38.47
2022-10-20T11:23:16.216Z,40.00
2022-10-20T11:25:54.667Z,38.95
2022-10-20T11:28:46.615Z,33.38
2022-10-20T11:31:25.807Z,38.08
2022-10-20T11:34:04.402Z,34.45
2022-10-20T11:37:02.312Z,32.08
2022-10-20T11:39:53.208Z,34.92
2022-10-20T11:42:30.731Z,32.00
2022-10-20T11:45:01.265Z,35.80
2022-10-20T11:47:38.332Z,30.30
2022-10-20T11:50:10.207Z,32.70
2022-10-20T11:52:48.843Z,34.28
2022-10-20T11:55:29.799Z,37.03
2022-10-20T12:01:10.413Z,29.73
2022-10-20T12:04:04.206Z,33.58
2022-10-20T12:06:58.260Z,35.67
2022-10-20T12:10:02.308Z,33.92
2022-10-20T12:12:47.201Z,31.15
2022-10-20T12:15:25.207Z,31.55
2022-10-20T12:17:53.754Z,34.80
2022-10-20T12:20:20.142Z,29.52
2022-10-20T12:22:54.439Z,33.55
2022-10-20T12:25:26.883Z,29.88
2022-10-20T12:28:32.164Z,35.08
2022-10-20T12:31:04.299Z,34.88
2022-10-20T12:33:41.756Z,27.58
2022-10-20T12:36:32.384Z,25.15
2022-10-20T12:39:15.995Z,26.55
2022-10-20T12:41:56.375Z,38.53
2022-10-20T12:44:23.691Z,31.25
2022-10-20T12:47:03.644Z,32.22
2022-10-20T12:49:39.587Z,39.58
2022-10-20T12:52:10.205Z,29.45
2022-10-20T12:54:43.836Z,36.63
2022-10-20T12:57:26.413Z,32.90
2022-10-20T12:59:53.644Z,29.52
2022-10-20T13:02:22.864Z,41.00
2022-10-20T13:04:59.964Z,31.77
2022-10-20T13:07:48.418Z,31.45
2022-10-20T13:10:27.237Z,41.38
2022-10-20T13:13:03.313Z,37.53
2022-10-20T13:15:39.333Z,33.63
2022-10-20T13:18:12.244Z,34.30
2022-10-20T13:20:41.538Z,37.03
2022-10-20T13:23:23.030Z,35.25
2022-10-20T13:25:53.327Z,31.80
2022-10-20T13:28:24.655Z,40.00
2022-10-20T13:31:05.969Z,38.05
2022-10-20T13:36:51.360Z,35.03
2022-10-20T13:39:26.803Z,32.65
2022-10-20T13:42:04.354Z,32.95
2022-10-20T13:44:47.804Z,33.40
2022-10-20T13:47:53.270Z,32.60
2022-10-20T13:50:26.919Z,36.33
2022-10-20T13:52:57.149Z,37.67
2022-10-20T13:55:28.098Z,30.60
2022-10-20T13:58:08.059Z,33.00
2022-10-20T14:00:36.159Z,33.28
2022-10-20T14:03:16.897Z,39.40
2022-10-20T14:05:43.520Z,33.30
2022-10-20T14:08:11.486Z,35.63
2022-10-20T14:10:48.291Z,33.63
2022-10-20T14:13:18.484Z,34.03
2022-10-20T14:15:48.670Z,39.63
2022-10-20T14:18:27.490Z,42.42
2022-10-20T14:21:05.605Z,32.60
2022-10-20T14:23:37.037Z,38.63
2022-10-20T14:26:07.282Z,34.13
2022-10-20T14:28:36.300Z,33.65
2022-10-20T14:31:03.239Z,33.53
2022-10-20T14:33:33.276Z,37.17
2022-10-20T14:36:02.590Z,34.40
2022-10-20T14:38:37.593Z,30.63
2022-10-20T14:41:07.016Z,31.30
2022-10-20T14:43:47.259Z,37.08
2022-10-20T14:46:44.989Z,36.70
2022-10-20T14:49:37.763Z,33.60
2022-10-20T14:52:38.532Z,41.95
2022-10-20T14:55:28.189Z,40.50
2022-10-20T14:57:55.028Z,36.95
2022-10-20T15:00:36.897Z,40.25
2022-10-20T15:03:07.045Z,40.53
2022-10-20T15:05:40.592Z,42.05
2022-10-20T15:08:29.177Z,41.80
2022-10-20T15:10:56.990Z,36.83
2022-10-20T15:13:32.297Z,39.35
2022-10-20T15:16:00.896Z,39.28
2022-10-20T15:18:28.625Z,35.67
2022-10-20T15:20:56.202Z,42.83
2022-10-20T15:23:27.783Z,35.13
2022-10-20T15:26:12.764Z,39.38
2022-10-20T15:28:47.612Z,38.08
2022-10-20T15:31:13.994Z,36.65
2022-10-20T15:33:41.485Z,45.78
2022-10-20T15:36:22.230Z,45.25
2022-10-20T15:38:49.636Z,54.28
2022-10-20T15:41:22.421Z,54.38
2022-10-20T15:43:49.291Z,54.45
2022-10-20T15:46:17.385Z,60.75
2022-10-20T15:48:44.421Z,51.22
2022-10-20T15:51:34.833Z,39.80
2022-10-20T15:54:01.963Z,49.83
2022-10-20T15:56:28.886Z,43.03
2022-10-20T15:58:55.481Z,41.55
2022-10-20T16:01:22.299Z,41.55
2022-10-20T16:03:49.632Z,42.42
2022-10-20T16:06:17.916Z,39.47
2022-10-20T16:08:47.476Z,41.10
2022-10-20T16:11:16.165Z,46.72
2022-10-20T16:13:43.068Z,38.75
2022-10-20T16:16:12.796Z,46.20
2022-10-20T16:18:39.448Z,44.33
2022-10-20T16:21:07.099Z,39.92
2022-10-20T16:23:42.119Z,37.83
2022-10-20T16:26:12.717Z,42.85
2022-10-20T16:28:39.214Z,40.42
2022-10-20T16:31:08.474Z,43.75
2022-10-20T16:33:35.311Z,35.03
2022-10-20T16:38:40.316Z,44.95
2022-10-20T16:41:10.638Z,38.28
2022-10-20T16:43:41.893Z,40.78
2022-10-20T16:46:10.402Z,49.38
2022-10-20T16:48:39.030Z,44.00
2022-10-20T16:51:08.684Z,54.20
2022-10-20T16:53:35.734Z,44.92
2022-10-20T16:56:02.272Z,49.13
2022-10-20T16:58:28.898Z,42.83
2022-10-20T17:01:04.338Z,43.25
2022-10-20T17:03:30.935Z,52.10
2022-10-20T17:06:03.548Z,46.63
2022-10-20T17:08:31.946Z,40.17
2022-10-20T17:11:00.425Z,47.63
2022-10-20T17:13:28.214Z,45.80
2022-10-20T17:15:54.889Z,45.92
2022-10-20T17:18:22.791Z,45.15
2022-10-20T17:20:58.337Z,47.33
2022-10-20T17:23:25.576Z,45.53
2022-10-20T17:25:53.086Z,50.83
2022-10-20T17:28:19.945Z,40.40
2022-10-20T17:30:47.939Z,40.13
2022-10-20T17:33:16.019Z,41.65
2022-10-20T17:35:48.605Z,41.15
2022-10-20T17:38:15.122Z,41.50
2022-10-20T17:40:41.930Z,41.88
2022-10-20T17:43:08.360Z,47.97
2022-10-20T17:45:37.498Z,47.03
2022-10-20T17:48:05.563Z,45.70
2022-10-20T17:50:32.001Z,49.92
2022-10-20T17:53:02.049Z,43.47
2022-10-20T17:55:29.140Z,35.27
2022-10-20T17:57:56.361Z,39.55
2022-10-20T18:00:37.739Z,50.25
2022-10-20T18:03:09.388Z,42.80
2022-10-20T18:05:36.462Z,42.25
2022-10-20T18:08:02.939Z,44.28
2022-10-20T18:10:29.397Z,45.55
2022-10-20T18:12:55.800Z,43.65
2022-10-20T18:15:22.252Z,43.67
2022-10-20T18:17:48.652Z,46.40
2022-10-20T18:20:15.118Z,41.80
2022-10-20T18:22:41.532Z,44.40
2022-10-20T18:25:08.349Z,50.78
2022-10-20T18:27:34.832Z,47.65
2022-10-20T18:30:01.371Z,44.70
2022-10-20T18:32:27.873Z,39.97
2022-10-20T18:34:54.307Z,51.53
2022-10-20T18:37:20.745Z,48.78
2022-10-20T18:39:47.293Z,45.05
2022-10-20T18:42:13.724Z,42.33
2022-10-20T18:44:40.136Z,43.42
2022-10-20T18:47:06.545Z,49.00
2022-10-20T18:49:33.114Z,54.25
2022-10-20T18:51:59.589Z,49.08
2022-10-20T18:54:26.079Z,48.75
2022-10-20T18:56:52.548Z,51.67
2022-10-20T18:59:19.448Z,42.13
2022-10-20T19:01:48.173Z,45.97
2022-10-20T19:04:14.659Z,46.67
2022-10-20T19:06:46.781Z,52.58
2022-10-20T19:09:16.882Z,55.05
2022-10-20T19:11:44.822Z,53.00
2022-10-20T19:14:12.357Z,53.85
2022-10-20T19:16:39.915Z,61.53
2022-10-20T19:19:07.862Z,49.33
2022-10-20T19:21:35.312Z,48.20
2022-10-20T19:24:12.527Z,61.60
2022-10-20T19:26:41.864Z,55.13
2022-10-20T19:29:11.874Z,44.00
2022-10-20T19:31:42.634Z,55.88
2022-10-20T19:34:16.081Z,60.20
2022-10-20T19:36:43.139Z,58.45
2022-10-20T19:39:11.341Z,53.83
2022-10-20T19:41:37.859Z,55.88
2022-10-20T19:44:04.777Z,52.22
2022-10-20T19:46:31.210Z,57.60
2022-10-20T19:48:57.794Z,60.33
2022-10-20T19:51:24.520Z,57.97
2022-10-20T19:53:51.079Z,54.65
2022-10-20T19:56:17.892Z,58.05
2022-10-20T19:58:46.621Z,58.30
2022-10-20T20:01:13.760Z,56.75
2022-10-20T20:03:40.281Z,57.28
2022-10-20T20:06:10.481Z,51.55
2022-10-20T20:08:37.403Z,52.13
2022-10-20T20:11:05.210Z,58.53
2022-10-20T20:13:32.668Z,52.15
2022-10-20T20:16:07.037Z,49.45
2022-10-20T20:18:35.251Z,53.28
2022-10-20T20:21:04.359Z,53.17
2022-10-20T20:23:41.150Z,61.70
2022-10-20T20:26:18.078Z,55.40
2022-10-20T20:28:44.538Z,46.10
2022-10-20T20:31:12.297Z,54.03
2022-10-20T20:33:39.049Z,52.92
2022-10-20T20:36:08.132Z,53.75
2022-10-20T20:38:38.697Z,53.58
2022-10-20T20:41:12.432Z,56.95
2022-10-20T20:43:40.672Z,61.90
2022-10-20T20:46:10.595Z,44.20
2022-10-20T20:48:37.647Z,58.20
2022-10-20T20:51:04.932Z,54.75
2022-10-20T20:56:06.868Z,49.35
2022-10-20T20:58:33.686Z,54.45
2022-10-20T21:01:18.347Z,54.47
2022-10-20T21:03:45.959Z,52.90
2022-10-20T21:06:17.133Z,64.40
2022-10-20T21:08:47.504Z,64.40
2022-10-20T21:11:22.516Z,59.58
2022-10-20T21:13:50.625Z,53.13
2022-10-20T21:16:26.049Z,79.63
2022-10-20T21:18:55.166Z,52.03
2022-10-20T21:21:24.785Z,60.20
2022-10-20T21:23:51.921Z,57.88
2022-10-20T21:26:20.603Z,64.18
2022-10-20T21:28:48.140Z,51.30
2022-10-20T21:31:18.066Z,68.28
2022-10-20T21:33:45.585Z,58.13
2022-10-20T21:36:15.006Z,53.95
2022-10-20T21:38:42.548Z,55.15
2022-10-20T21:41:14.711Z,55.83
2022-10-20T21:43:44.928Z,50.55
2022-10-20T21:46:20.532Z,58.43
2022-10-20T21:48:48.945Z,54.30
2022-10-20T21:51:18.612Z,52.72
2022-10-20T21:53:45.408Z,54.78
2022-10-20T21:56:12.726Z,51.95
2022-10-20T21:58:39.499Z,56.65
2022-10-20T22:01:17.387Z,58.45
2022-10-20T22:03:47.263Z,51.17
2022-10-20T22:06:15.931Z,55.70
2022-10-20T22:08:45.612Z,51.25
2022-10-20T22:11:15.767Z,52.97
2022-10-20T22:13:42.670Z,59.77
2022-10-20T22:16:13.044Z,60.85
2022-10-20T22:18:39.507Z,52.47
2022-10-20T22:21:11.198Z,62.00
2022-10-20T22:23:40.478Z,54.25
2022-10-20T22:26:07.287Z,59.85
2022-10-20T22:28:33.680Z,63.35
2022-10-20T22:33:27.554Z,55.70
2022-10-20T22:35:54.012Z,71.35
2022-10-20T22:38:20.483Z,62.63
2022-10-20T22:40:46.938Z,54.85
2022-10-20T22:43:13.677Z,56.58
2022-10-20T22:45:40.136Z,64.43
2022-10-20T22:48:06.650Z,62.38
2022-10-20T22:50:33.200Z,63.03
2022-10-20T22:52:59.632Z,59.10
2022-10-20T22:55:26.086Z,67.22
2022-10-20T22:57:52.760Z,59.33
2022-10-20T23:00:20.471Z,65.95
2022-10-20T23:02:47.035Z,59.13
2022-10-20T23:05:13.535Z,57.25
2022-10-20T23:07:40.505Z,63.13
2022-10-20T23:10:08.001Z,54.35
2022-10-20T23:12:34.571Z,56.45
2022-10-20T23:15:01.184Z,62.10
2022-10-20T23:17:27.928Z,52.42
2022-10-20T23:19:54.351Z,60.10
2022-10-20T23:22:21.053Z,54.90
2022-10-20T23:24:47.900Z,57.30
2022-10-20T23:27:14.437Z,51.60
2022-10-20T23:29:40.856Z,54.38
2022-10-20T23:32:07.272Z,48.95
2022-10-20T23:37:01.048Z,54.90
2022-10-20T23:39:27.470Z,59.47
2022-10-20T23:41:53.891Z,51.17
2022-10-20T23:44:20.292Z,58.90
2022-10-20T23:46:46.693Z,49.22
2022-10-20T23:49:14.041Z,45.03
2022-10-20T23:51:40.498Z,48.13
2022-10-20T23:54:06.904Z,53.13
2022-10-20T23:56:33.321Z,49.55
2022-10-20T23:58:59.743Z,62.35
